Time;durP1;ratioP1;P1;durP2;ratioP2;P2;SDS_P1;SDS_P2;PMS_P1;PMS_P2;Temp;Humidity;BMP_temperature;BMP_pressure;BME280_temperature;BME280_humidity;BME280_pressure;Samples;Min_cycle;Max_cycle;Signal;HPM_P1;HPM_P2
2021/07/11 00:01:58;;;;;;;21.23;16.48;;;;;;;23.77;66.67;100087.25;5095061;28;20040;-78
2021/07/11 00:04:24;;;;;;;21.17;16.88;;;;;;;23.74;66.69;100084.75;5094600;28;20035;-77
2021/07/11 00:06:50;;;;;;;21.52;18.25;;;;;;;23.79;67.02;100097.78;5076837;28;20040;-78
2021/07/11 00:09:17;;;;;;;18.80;16.77;;;;;;;23.72;66.89;100091.97;5074896;28;20088;-78
2021/07/11 00:11:42;;;;;;;26.88;18.92;;;;;;;23.73;67.15;100093.69;5094933;28;20040;-79
2021/07/11 00:14:08;;;;;;;19.15;16.33;;;;;;;23.66;67.41;100097.66;5094933;28;20044;-78
2021/07/11 00:16:36;;;;;;;25.05;18.10;;;;;;;23.66;67.31;100102.09;5076366;28;20043;-78
2021/07/11 00:19:02;;;;;;;19.52;17.33;;;;;;;23.59;67.56;100097.19;5093822;28;20040;-77
2021/07/11 00:21:29;;;;;;;21.88;17.00;;;;;;;23.55;67.88;100084.16;5077150;28;20067;-77
2021/07/11 00:23:54;;;;;;;22.15;19.00;;;;;;;23.50;67.75;100092.38;5100828;28;20518;-79
2021/07/11 00:26:20;;;;;;;21.42;17.60;;;;;;;23.53;67.85;100102.84;5077037;28;20087;-77
2021/07/11 00:28:46;;;;;;;22.55;18.10;;;;;;;23.41;68.13;100091.13;5092934;28;20040;-78
2021/07/11 00:31:13;;;;;;;27.90;18.05;;;;;;;23.44;67.95;100098.91;5093602;28;20047;-78
2021/07/11 00:33:39;;;;;;;25.35;19.02;;;;;;;23.45;67.98;100097.97;5093539;28;20040;-78
2021/07/11 00:36:05;;;;;;;23.50;17.55;;;;;;;23.41;68.30;100099.09;5075995;28;20423;-78
2021/07/11 00:38:31;;;;;;;20.10;16.70;;;;;;;23.31;68.12;100088.16;5094667;28;20441;-76
2021/07/11 00:41:01;;;;;;;22.05;18.38;;;;;;;23.38;68.42;100104.56;5076800;28;20092;-78
2021/07/11 00:43:28;;;;;;;22.25;17.20;;;;;;;23.38;68.39;100101.91;5093303;28;20043;-77
2021/07/11 00:46:00;;;;;;;21.05;18.75;;;;;;;23.35;68.24;100094.13;5076492;28;20044;-77
2021/07/11 00:48:28;;;;;;;19.53;17.50;;;;;;;23.34;68.22;100097.72;5092323;28;20105;-77
2021/07/11 00:50:57;;;;;;;20.45;18.10;;;;;;;23.28;68.30;100092.78;5076058;28;20043;-78
2021/07/11 00:53:24;;;;;;;21.23;18.58;;;;;;;23.41;68.15;100111.50;5092529;28;20523;-76
2021/07/11 00:55:51;;;;;;;21.33;18.60;;;;;;;23.39;68.46;100106.28;5094134;28;20064;-76
2021/07/11 00:58:17;;;;;;;21.73;17.83;;;;;;;23.32;68.35;100094.31;5093987;28;20044;-78
2021/07/11 01:00:55;;;;;;;19.35;16.58;;;;;;;23.35;68.48;100099.44;5093319;28;20059;-77
2021/07/11 01:03:32;;;;;;;20.13;16.38;;;;;;;23.33;68.55;100103.97;5093800;28;20063;-77
2021/07/11 01:06:04;;;;;;;20.77;17.55;;;;;;;23.25;68.81;100095.63;5092639;28;20043;-78
2021/07/11 01:08:43;;;;;;;19.98;16.90;;;;;;;23.29;68.66;100113.94;5093046;28;20047;-78
2021/07/11 01:11:16;;;;;;;23.55;19.05;;;;;;;23.25;68.72;100108.88;5091669;28;20047;-78
2021/07/11 01:13:43;;;;;;;19.77;17.77;;;;;;;23.23;68.67;100113.44;5093012;28;20055;-78
2021/07/11 01:16:24;;;;;;;21.60;16.90;;;;;;;23.19;68.69;100099.41;5093072;28;20462;-78
2021/07/11 01:19:08;;;;;;;21.17;17.35;;;;;;;23.22;68.72;100109.06;5092781;28;20040;-77
2021/07/11 01:21:42;;;;;;;20.38;17.02;;;;;;;23.22;68.67;100117.03;5093053;28;20043;-78
2021/07/11 01:24:26;;;;;;;21.27;18.50;;;;;;;23.22;68.84;100109.06;5059825;28;20077;-77
2021/07/11 01:26:52;;;;;;;22.10;17.13;;;;;;;23.17;69.02;100112.78;5093725;28;20396;-76
2021/07/11 01:29:20;;;;;;;22.00;17.92;;;;;;;23.16;68.70;100124.34;5093318;28;20044;-77
2021/07/11 01:31:48;;;;;;;19.77;17.02;;;;;;;23.07;69.04;100108.94;5065234;28;20080;-78
2021/07/11 01:34:17;;;;;;;23.67;18.05;;;;;;;23.13;69.00;100121.88;5094357;28;20036;-77
2021/07/11 01:36:43;;;;;;;19.60;17.42;;;;;;;23.10;68.85;100114.06;5075950;28;20368;-78
2021/07/11 01:39:15;;;;;;;17.80;15.90;;;;;;;23.11;69.08;100115.78;5076006;28;20043;-79
2021/07/11 01:41:47;;;;;;;20.73;17.27;;;;;;;23.12;69.07;100108.69;5059669;28;20040;-77
2021/07/11 01:44:16;;;;;;;20.95;17.42;;;;;;;23.16;69.25;100124.34;5092260;28;20132;-78
2021/07/11 01:46:45;;;;;;;21.67;18.05;;;;;;;23.17;68.74;100131.38;5092367;28;20051;-79
2021/07/11 01:49:12;;;;;;;20.90;18.20;;;;;;;23.16;69.14;100132.31;5096075;28;20040;-77
2021/07/11 01:51:40;;;;;;;20.98;17.80;;;;;;;23.15;69.03;100133.25;5096278;28;20043;-76
2021/07/11 01:54:07;;;;;;;17.55;15.75;;;;;;;23.12;69.14;100125.47;5096999;28;20043;-76
2021/07/11 01:56:39;;;;;;;22.70;17.92;;;;;;;23.12;69.01;100124.63;5095820;28;20048;-77
2021/07/11 01:59:10;;;;;;;19.60;16.45;;;;;;;23.10;68.76;100130.00;5079005;28;20036;-77
2021/07/11 02:01:46;;;;;;;28.25;19.17;;;;;;;23.13;69.04;100132.47;5064116;28;20036;-78
2021/07/11 02:04:14;;;;;;;18.58;16.10;;;;;;;23.03;69.24;100118.03;5096075;28;20045;-77
2021/07/11 02:06:42;;;;;;;19.15;16.85;;;;;;;23.12;69.04;100124.63;5078977;28;20051;-77
2021/07/11 02:09:21;;;;;;;18.98;16.92;;;;;;;23.07;69.19;100119.53;5079616;28;20064;-76
2021/07/11 02:11:54;;;;;;;23.08;16.67;;;;;;;23.07;68.81;100114.25;5095874;28;20068;-76
2021/07/11 02:14:29;;;;;;;18.00;16.10;;;;;;;23.04;69.15;100111.78;5097325;28;20048;-76
2021/07/11 02:17:17;;;;;;;18.73;15.30;;;;;;;23.12;68.75;100121.97;5095739;28;20407;-78
2021/07/11 02:20:09;;;;;;;18.75;15.43;;;;;;;23.17;68.56;100134.03;5094991;28;20052;-79
2021/07/11 02:22:42;;;;;;;18.65;14.82;;;;;;;23.20;68.52;100127.69;5097034;28;20035;-78
2021/07/11 02:25:11;;;;;;;17.67;15.52;;;;;;;23.21;68.45;100133.84;5078935;28;20040;-77
2021/07/11 02:27:38;;;;;;;18.13;16.23;;;;;;;23.20;68.47;100124.19;5096098;28;20048;-78
2021/07/11 02:30:11;;;;;;;21.05;16.55;;;;;;;23.20;68.15;100129.50;5097422;28;20052;-77
2021/07/11 02:32:43;;;;;;;20.27;16.40;;;;;;;22.94;68.13;100090.22;5096965;28;20130;-77
2021/07/11 02:35:09;;;;;;;18.33;16.23;;;;;;;23.16;68.35;100123.50;5096743;28;20131;-78
2021/07/11 02:37:44;;;;;;;18.02;16.08;;;;;;;23.21;68.55;100126.78;5099722;28;20036;-77
2021/07/11 02:40:13;;;;;;;19.00;16.35;;;;;;;23.22;68.05;100125.81;5064902;28;20115;-77
2021/07/11 02:42:40;;;;;;;17.73;14.82;;;;;;;23.22;67.95;100120.53;5078723;28;20075;-78
2021/07/11 02:45:07;;;;;;;18.45;15.80;;;;;;;23.29;68.06;100121.88;5096241;28;20048;-77
2021/07/11 02:47:40;;;;;;;18.93;15.30;;;;;;;23.28;67.87;100109.56;5098162;28;20119;-78
2021/07/11 02:50:08;;;;;;;16.70;15.00;;;;;;;23.38;67.69;100122.31;5110660;28;20051;-75
2021/07/11 02:52:42;;;;;;;17.13;14.98;;;;;;;23.45;67.51;100121.88;5108883;28;20040;-78
2021/07/11 02:55:16;;;;;;;19.40;16.10;;;;;;;23.46;67.68;100120.94;5096927;28;20510;-77
2021/07/11 02:57:53;;;;;;;19.08;16.15;;;;;;;23.58;67.46;100134.44;5095292;28;20047;-77
2021/07/11 03:00:19;;;;;;;18.98;15.90;;;;;;;23.66;67.59;100132.19;5077704;28;20043;-76
2021/07/11 03:02:46;;;;;;;17.95;16.05;;;;;;;23.76;67.10;100138.66;5095806;28;20566;-77
2021/07/11 03:05:24;;;;;;;19.23;15.23;;;;;;;23.86;66.85;100130.16;5078481;28;20032;-77
2021/07/11 03:07:55;;;;;;;20.52;14.88;;;;;;;24.02;66.89;100140.75;5095298;28;20044;-78
2021/07/11 03:10:20;;;;;;;18.13;15.30;;;;;;;24.09;66.43;100123.47;5092925;28;20078;-77
2021/07/11 03:12:52;;;;;;;15.25;13.75;;;;;;;24.16;66.38;100105.38;5094615;28;20088;-78
2021/07/11 03:15:19;;;;;;;17.77;15.10;;;;;;;24.41;66.05;100119.81;5095005;28;20527;-77
2021/07/11 03:17:51;;;;;;;18.70;14.88;;;;;;;24.53;65.64;100121.72;5095688;28;20093;-78
2021/07/11 03:20:18;;;;;;;16.92;15.25;;;;;;;24.71;65.04;100126.84;5078221;28;20046;-78
2021/07/11 03:22:45;;;;;;;18.48;14.60;;;;;;;24.82;64.82;100129.72;5095944;28;20503;-78
2021/07/11 03:25:13;;;;;;;17.17;15.27;;;;;;;24.89;64.01;100124.84;5078754;28;20518;-78
2021/07/11 03:27:40;;;;;;;16.77;14.25;;;;;;;25.04;64.06;100126.50;5095168;28;20550;-78
2021/07/11 03:30:16;;;;;;;16.10;14.35;;;;;;;25.09;63.46;100112.91;5094667;28;20083;-76
2021/07/11 03:32:49;;;;;;;18.42;15.02;;;;;;;25.42;63.22;100128.50;5095811;28;20356;-78
2021/07/11 03:35:18;;;;;;;15.55;13.95;;;;;;;25.62;62.54;100118.31;5094606;28;20101;-79
2021/07/11 03:37:48;;;;;;;16.67;14.00;;;;;;;25.81;62.22;100112.63;5061749;28;20063;-78
2021/07/11 03:40:26;;;;;;;17.38;13.93;;;;;;;26.12;61.25;100121.22;5098026;28;20526;-78
2021/07/11 03:42:57;;;;;;;16.38;13.13;;;;;;;26.22;60.63;100115.22;5097149;28;20523;-81
2021/07/11 03:45:25;;;;;;;17.60;13.65;;;;;;;26.30;60.12;100107.56;5100561;28;20035;-76
2021/07/11 03:47:57;;;;;;;16.55;13.88;;;;;;;26.45;59.77;100126.97;5097108;28;20132;-78
2021/07/11 03:50:26;;;;;;;16.30;13.82;;;;;;;26.43;59.36;100115.56;5077409;28;20044;-79
2021/07/11 03:52:56;;;;;;;17.48;14.05;;;;;;;26.41;59.39;100120.97;5095368;28;20051;-77
2021/07/11 03:55:22;;;;;;;18.05;14.20;;;;;;;26.38;59.59;100110.53;5094340;28;20568;-78
2021/07/11 03:57:51;;;;;;;16.08;14.38;;;;;;;26.47;59.52;100119.72;5095148;28;20063;-78
2021/07/11 04:00:19;;;;;;;16.40;14.55;;;;;;;26.54;59.03;100109.47;5095102;28;20103;-78
2021/07/11 04:02:50;;;;;;;16.08;14.18;;;;;;;26.75;58.78;100118.59;5094715;28;20040;-80
2021/07/11 04:05:19;;;;;;;16.02;13.80;;;;;;;27.01;58.60;100120.34;5094261;28;20529;-78
2021/07/11 04:07:50;;;;;;;18.95;13.38;;;;;;;27.26;57.95;100111.38;5095057;28;20044;-78
2021/07/11 04:10:17;;;;;;;15.00;13.00;;;;;;;27.63;57.14;100123.84;5093558;28;20059;-76
2021/07/11 04:12:43;;;;;;;13.38;12.02;;;;;;;27.98;56.54;100122.09;5094406;28;20089;-77
2021/07/11 04:15:09;;;;;;;12.38;11.10;;;;;;;28.17;55.42;100106.38;5105829;28;20032;-78
2021/07/11 04:17:38;;;;;;;13.48;11.75;;;;;;;28.41;53.77;100116.09;5093733;28;20117;-79
2021/07/11 04:20:06;;;;;;;12.60;10.57;;;;;;;28.58;53.08;100111.25;5105451;28;20040;-76
2021/07/11 04:22:32;;;;;;;12.32;11.10;;;;;;;28.81;52.49;100109.44;5096269;28;20065;-77
2021/07/11 04:25:00;;;;;;;16.23;11.07;;;;;;;28.75;51.05;100113.47;5095611;28;20036;-78
2021/07/11 04:27:28;;;;;;;12.90;11.40;;;;;;;28.53;50.70;100101.78;5095565;28;20051;-77
2021/07/11 04:29:55;;;;;;;13.98;11.50;;;;;;;28.57;51.28;100121.09;5093627;28;20048;-77
2021/07/11 04:32:21;;;;;;;15.27;10.38;;;;;;;28.53;51.09;100123.19;5094255;28;20040;-77
2021/07/11 04:34:47;;;;;;;13.43;12.02;;;;;;;28.50;50.91;100115.38;5076403;28;20439;-82
2021/07/11 04:37:13;;;;;;;13.30;11.88;;;;;;;28.46;51.29;100100.53;5094282;28;20051;-77
2021/07/11 04:39:40;;;;;;;13.13;11.80;;;;;;;28.67;50.87;100118.53;5093267;28;20461;-78
2021/07/11 04:42:06;;;;;;;12.40;11.13;;;;;;;28.90;50.50;100121.22;5076721;28;20097;-78
2021/07/11 04:44:33;;;;;;;12.32;10.77;;;;;;;29.07;50.24;100120.69;5094105;28;20040;-78
2021/07/11 04:46:59;;;;;;;12.80;11.40;;;;;;;29.25;49.44;100117.44;5075896;28;20043;-77
2021/07/11 04:49:25;;;;;;;11.98;10.77;;;;;;;29.51;49.17;100122.50;5092648;28;20050;-79
2021/07/11 04:51:52;;;;;;;15.00;10.73;;;;;;;29.61;48.50;100118.09;5076134;28;20040;-78
2021/07/11 04:54:18;;;;;;;12.25;10.43;;;;;;;29.76;47.89;100119.47;5082916;28;20073;-79
2021/07/11 04:56:45;;;;;;;16.05;11.02;;;;;;;29.83;47.17;100110.91;5076247;28;20039;-78
2021/07/11 04:59:11;;;;;;;11.02;9.90;;;;;;;29.99;47.04;100121.22;5093754;28;20074;-78
2021/07/11 05:01:39;;;;;;;12.32;10.23;;;;;;;30.08;46.62;100124.94;5096163;28;20040;-79
2021/07/11 05:04:05;;;;;;;10.85;9.45;;;;;;;30.17;46.20;100118.75;5095055;28;20408;-78
2021/07/11 05:06:30;;;;;;;9.50;8.60;;;;;;;30.33;45.53;100119.13;5076654;28;20046;-80
2021/07/11 05:08:56;;;;;;;9.93;8.63;;;;;;;30.48;45.23;100127.63;5093520;28;20051;-78
2021/07/11 05:11:23;;;;;;;9.63;8.65;;;;;;;30.64;43.78;100131.72;5094345;28;20469;-76
2021/07/11 05:13:48;;;;;;;10.38;8.48;;;;;;;30.67;43.07;100125.22;5094886;28;20472;-78
2021/07/11 05:16:14;;;;;;;9.60;8.60;;;;;;;30.73;42.94;100113.94;5105289;28;20040;-78
2021/07/11 05:18:40;;;;;;;9.68;8.65;;;;;;;30.88;42.49;100120.59;5113490;28;20032;-75
2021/07/11 05:21:06;;;;;;;9.40;8.02;;;;;;;31.00;42.21;100132.09;5112008;28;20054;-75
2021/07/11 05:23:32;;;;;;;10.18;7.93;;;;;;;31.02;41.62;100116.69;5113311;28;20036;-76
2021/07/11 05:25:58;;;;;;;9.25;8.30;;;;;;;31.17;41.10;100121.66;5113372;28;20028;-78
2021/07/11 05:28:24;;;;;;;11.65;8.40;;;;;;;31.32;41.11;100122.09;5096011;28;20040;-78
2021/07/11 05:30:50;;;;;;;10.48;8.68;;;;;;;31.47;40.41;100115.31;5113820;28;20046;-79
2021/07/11 05:33:16;;;;;;;9.40;8.50;;;;;;;31.68;39.82;100130.44;5111470;28;20043;-77
2021/07/11 05:35:42;;;;;;;10.25;8.90;;;;;;;31.82;40.04;100130.03;5082286;28;20058;-78
2021/07/11 05:38:08;;;;;;;9.48;8.55;;;;;;;31.99;39.69;100127.59;5097123;28;20047;-78
2021/07/11 05:40:34;;;;;;;10.43;9.32;;;;;;;32.08;39.63;100125.88;5096876;28;20036;-77
2021/07/11 05:43:00;;;;;;;11.07;8.73;;;;;;;32.18;38.88;100133.91;5095277;28;20051;-76
2021/07/11 05:45:27;;;;;;;10.70;8.32;;;;;;;32.30;39.11;100140.88;5094769;28;20032;-76
2021/07/11 05:47:53;;;;;;;10.02;9.02;;;;;;;32.54;39.01;100136.81;5077937;28;20522;-78
2021/07/11 05:50:20;;;;;;;9.50;8.65;;;;;;;32.90;37.67;100139.63;5094417;28;20035;-77
2021/07/11 05:52:46;;;;;;;8.95;8.05;;;;;;;33.30;37.68;100129.44;5093047;28;20118;-77
2021/07/11 05:55:12;;;;;;;8.50;7.70;;;;;;;34.51;36.30;100136.06;5075714;28;20044;-78
2021/07/11 05:57:38;;;;;;;7.97;7.28;;;;;;;36.43;34.76;100141.50;5093290;28;20052;-78
2021/07/11 06:00:07;;;;;;;10.10;8.23;;;;;;;38.27;31.57;100130.88;5094693;28;20083;-78
2021/07/11 06:02:39;;;;;;;7.82;7.22;;;;;;;39.82;28.95;100135.38;5080437;28;20048;-79
2021/07/11 06:05:07;;;;;;;7.30;6.60;;;;;;;41.02;27.02;100126.09;5093234;28;20035;-78
2021/07/11 06:07:33;;;;;;;7.47;6.35;;;;;;;42.35;25.69;100134.50;5093138;28;20557;-77
2021/07/11 06:09:59;;;;;;;7.32;6.55;;;;;;;43.23;23.62;100124.03;5074255;28;20059;-79
2021/07/11 06:12:25;;;;;;;7.20;5.60;;;;;;;44.21;22.49;100137.28;5092513;28;20147;-77
2021/07/11 06:14:52;;;;;;;9.02;7.47;;;;;;;45.17;21.25;100128.41;5091762;28;20044;-78
2021/07/11 06:17:19;;;;;;;11.32;6.38;;;;;;;45.77;20.30;100128.50;5091376;28;20560;-78
2021/07/11 06:19:45;;;;;;;7.70;6.03;;;;;;;46.30;19.58;100146.75;5093367;28;20403;-80
2021/07/11 06:22:11;;;;;;;6.50;5.90;;;;;;;46.83;18.75;100134.91;5092399;28;20039;-78
2021/07/11 06:24:37;;;;;;;9.35;6.30;;;;;;;47.60;17.11;100102.34;5093096;28;20119;-78
2021/07/11 06:27:03;;;;;;;6.88;5.70;;;;;;;48.45;16.78;100135.19;5092759;28;20035;-79
2021/07/11 06:29:31;;;;;;;5.72;5.25;;;;;;;49.15;16.12;100137.31;5094345;28;20058;-81
2021/07/11 06:31:58;;;;;;;5.90;5.30;;;;;;;49.66;15.48;100125.03;5093908;28;20071;-78
2021/07/11 06:34:24;;;;;;;5.55;5.07;;;;;;;50.33;14.46;100128.13;5094846;28;20109;-80
2021/07/11 06:36:50;;;;;;;5.03;4.55;;;;;;;50.88;13.63;100131.31;5079582;28;20040;-79
2021/07/11 06:39:15;;;;;;;5.47;4.50;;;;;;;50.91;13.35;100125.25;5097493;28;20040;-78
2021/07/11 06:41:41;;;;;;;5.18;4.70;;;;;;;51.31;13.20;100131.09;5096795;28;20406;-78
2021/07/11 06:44:07;;;;;;;5.95;5.15;;;;;;;51.87;12.27;100128.47;5096166;28;20032;-79
2021/07/11 06:46:33;;;;;;;5.63;4.63;;;;;;;52.24;12.26;100119.78;5078789;28;20197;-77
2021/07/11 06:48:59;;;;;;;5.85;4.75;;;;;;;52.82;11.44;100134.16;5095125;28;20103;-78
2021/07/11 06:51:25;;;;;;;5.20;4.70;;;;;;;52.65;11.57;100135.38;5079103;28;20117;-78
2021/07/11 06:53:51;;;;;;;5.15;4.65;;;;;;;52.96;11.09;100126.03;5099120;28;20050;-77
2021/07/11 06:56:17;;;;;;;7.97;5.18;;;;;;;53.26;10.87;100124.91;5095559;28;20135;-77
2021/07/11 06:58:43;;;;;;;6.40;5.32;;;;;;;53.58;10.31;100131.81;5096753;28;20052;-79
2021/07/11 07:01:09;;;;;;;5.65;5.15;;;;;;;53.50;9.99;100129.72;5078083;28;20473;-79
2021/07/11 07:03:35;;;;;;;7.85;5.13;;;;;;;53.65;10.11;100130.69;5078384;28;20583;-76
2021/07/11 07:06:01;;;;;;;5.75;5.07;;;;;;;54.20;10.14;100128.31;5094283;28;20570;-77
2021/07/11 07:08:28;;;;;;;6.07;4.38;;;;;;;54.04;9.54;100096.28;5097184;28;20044;-77
2021/07/11 07:10:55;;;;;;;5.13;4.65;;;;;;;54.25;9.63;100121.03;5097460;28;20079;-76
2021/07/11 07:13:21;;;;;;;4.90;4.57;;;;;;;54.01;9.21;100121.91;5094286;28;20063;-77
2021/07/11 07:15:48;;;;;;;6.13;4.60;;;;;;;53.92;9.35;100113.38;5096685;28;20044;-77
2021/07/11 07:18:14;;;;;;;6.55;4.50;;;;;;;54.62;9.15;100105.53;5097897;28;20032;-78
2021/07/11 07:20:39;;;;;;;6.07;4.55;;;;;;;54.97;8.92;100117.22;5106263;28;20042;-78
2021/07/11 07:23:05;;;;;;;4.70;4.30;;;;;;;54.99;8.34;100119.69;5106747;28;20040;-79
2021/07/11 07:25:31;;;;;;;4.82;4.43;;;;;;;55.35;8.46;100110.72;5098568;28;20077;-78
2021/07/11 07:27:57;;;;;;;4.88;4.47;;;;;;;54.03;7.90;100119.66;5095609;28;20430;-78
2021/07/11 07:30:23;;;;;;;6.35;4.93;;;;;;;52.63;9.69;100098.78;5094196;28;20036;-76
2021/07/11 07:32:50;;;;;;;4.85;4.43;;;;;;;52.89;9.58;100115.19;5094899;28;20050;-78
2021/07/11 07:35:20;;;;;;;5.30;4.88;;;;;;;52.70;9.27;100109.53;5095567;28;20056;-79
2021/07/11 07:37:48;;;;;;;5.35;4.88;;;;;;;53.51;9.14;100116.63;5094092;28;20036;-77
2021/07/11 07:40:17;;;;;;;5.18;4.65;;;;;;;54.59;8.67;100097.75;5094564;28;20043;-78
2021/07/11 07:42:45;;;;;;;6.05;4.82;;;;;;;55.23;8.21;100108.41;5094722;28;20048;-78
2021/07/11 07:45:11;;;;;;;6.03;4.60;;;;;;;54.54;8.55;100103.41;5094583;28;20109;-77
2021/07/11 07:47:36;;;;;;;5.93;4.97;;;;;;;55.42;8.09;100111.13;5095121;28;20129;-78
2021/07/11 07:50:08;;;;;;;5.35;4.95;;;;;;;56.29;7.54;100099.31;5094190;28;20056;-78
2021/07/11 07:52:34;;;;;;;5.07;4.65;;;;;;;56.80;7.96;100100.09;5094098;28;20044;-76
2021/07/11 07:55:00;;;;;;;5.20;4.78;;;;;;;57.39;7.79;100112.25;5077057;28;20043;-78
2021/07/11 07:57:26;;;;;;;5.47;5.07;;;;;;;57.81;7.60;100114.75;5077438;28;20165;-77
2021/07/11 07:59:52;;;;;;;5.70;5.30;;;;;;;57.73;7.17;100103.19;5094599;28;20067;-78
2021/07/11 08:02:18;;;;;;;6.60;5.25;;;;;;;56.57;7.43;100100.09;5093851;28;20089;-79
2021/07/11 08:04:44;;;;;;;5.60;5.07;;;;;;;56.95;7.16;100092.47;5094972;28;20121;-79
2021/07/11 08:07:15;;;;;;;5.82;5.28;;;;;;;57.03;7.33;100074.94;5080085;28;20044;-79
2021/07/11 08:09:41;;;;;;;6.30;5.70;;;;;;;57.62;7.67;100093.47;5095191;28;20540;-77
2021/07/11 08:12:07;;;;;;;6.07;5.47;;;;;;;57.07;7.36;100089.88;5075988;28;20566;-80
2021/07/11 08:14:34;;;;;;;6.40;5.18;;;;;;;57.08;7.71;100088.75;5078543;28;20053;-78
2021/07/11 08:17:01;;;;;;;7.07;5.03;;;;;;;58.00;6.94;100098.47;5085986;28;20040;-77
2021/07/11 08:19:28;;;;;;;5.25;4.95;;;;;;;58.52;6.73;100096.06;5096047;28;20134;-78
2021/07/11 08:21:57;;;;;;;5.65;5.13;;;;;;;58.04;6.95;100081.88;5099163;28;20068;-80
2021/07/11 08:24:23;;;;;;;6.72;5.15;;;;;;;58.02;7.08;100090.59;5093744;28;20652;-77
2021/07/11 08:26:49;;;;;;;6.25;5.72;;;;;;;58.43;6.55;100093.28;5093433;28;20078;-76
2021/07/11 08:29:15;;;;;;;7.15;6.07;;;;;;;57.59;6.91;100080.13;5092402;28;20047;-77
2021/07/11 08:31:41;;;;;;;6.03;5.55;;;;;;;57.75;7.52;100094.47;5092733;28;20150;-77
2021/07/11 08:34:07;;;;;;;6.18;5.57;;;;;;;57.99;6.72;100091.25;5092291;28;20066;-78
2021/07/11 08:36:33;;;;;;;6.45;5.85;;;;;;;57.65;7.13;100086.38;5092636;28;20456;-77
2021/07/11 08:39:00;;;;;;;5.70;5.20;;;;;;;57.78;7.32;100077.03;5094195;28;20048;-77
2021/07/11 08:41:26;;;;;;;5.85;5.20;;;;;;;57.81;7.11;100087.63;5093061;28;20036;-78
2021/07/11 08:43:55;;;;;;;6.22;5.82;;;;;;;56.97;6.93;100081.81;5076445;28;20119;-78
2021/07/11 08:46:21;;;;;;;6.95;6.00;;;;;;;57.35;7.41;100084.13;5096398;28;20044;-80
2021/07/11 08:48:48;;;;;;;7.00;5.65;;;;;;;57.71;6.73;100068.31;5093277;28;20048;-78
2021/07/11 08:51:16;;;;;;;6.20;5.75;;;;;;;57.94;6.52;100071.81;5093755;28;20103;-78
2021/07/11 08:53:45;;;;;;;6.80;6.15;;;;;;;57.28;6.44;100055.81;5093201;28;20120;-82
2021/07/11 08:56:20;;;;;;;7.20;5.90;;;;;;;57.23;7.44;100067.16;5092518;28;20044;-79
2021/07/11 08:58:54;;;;;;;5.78;5.32;;;;;;;57.02;7.65;100076.09;5091969;28;20128;-79
2021/07/11 09:01:21;;;;;;;5.53;5.13;;;;;;;57.09;7.38;100079.22;5092425;28;20486;-76
2021/07/11 09:04:05;;;;;;;5.80;5.35;;;;;;;57.28;7.49;100065.03;5092805;28;20040;-81
2021/07/11 09:06:46;;;;;;;8.55;6.45;;;;;;;56.77;7.74;100070.00;5092143;28;20090;-76
2021/07/11 09:09:21;;;;;;;6.25;5.80;;;;;;;56.70;7.29;100064.88;5089165;28;20048;-78
2021/07/11 09:11:55;;;;;;;6.65;5.43;;;;;;;57.10;7.35;100066.91;5092203;28;20084;-79
2021/07/11 09:14:25;;;;;;;6.45;5.82;;;;;;;56.98;6.62;100066.69;5091172;28;20135;-81
2021/07/11 09:16:53;;;;;;;6.63;5.88;;;;;;;56.70;6.67;100064.03;5091760;28;20122;-79
2021/07/11 09:19:43;;;;;;;6.33;5.90;;;;;;;56.73;7.35;100061.41;5074526;28;20040;-85
2021/07/11 09:22:18;;;;;;;5.88;5.43;;;;;;;57.01;7.34;100057.66;5092188;28;20044;-77
2021/07/11 09:24:55;;;;;;;5.75;5.35;;;;;;;56.93;6.85;100064.03;5100073;28;20047;-78
2021/07/11 09:27:26;;;;;;;6.47;5.82;;;;;;;55.46;7.06;100039.69;5074458;28;20138;-77
2021/07/11 09:29:58;;;;;;;5.78;5.28;;;;;;;54.91;8.22;100057.13;5090802;28;20048;-76
2021/07/11 09:32:32;;;;;;;6.65;6.05;;;;;;;55.38;8.20;100055.19;5090516;28;20070;-78
2021/07/11 09:35:15;;;;;;;8.65;5.68;;;;;;;55.72;7.21;100047.56;5090949;28;20055;-79
2021/07/11 09:37:43;;;;;;;6.15;5.65;;;;;;;55.57;7.46;100047.84;5073466;28;20051;-77
2021/07/11 09:40:16;;;;;;;7.05;6.10;;;;;;;55.64;7.52;100051.91;5089854;28;20092;-78
2021/07/11 09:42:45;;;;;;;5.90;5.35;;;;;;;55.52;7.79;100048.78;5090680;28;20046;-79
2021/07/11 09:45:21;;;;;;;6.50;5.90;;;;;;;55.63;7.73;100036.31;5091769;28;20032;-78
2021/07/11 09:47:49;;;;;;;6.10;5.15;;;;;;;56.06;7.76;100056.59;5090751;28;20096;-78
2021/07/11 09:50:20;;;;;;;5.53;5.00;;;;;;;55.90;7.17;100048.59;5091849;28;20122;-77
2021/07/11 09:52:58;;;;;;;6.10;5.28;;;;;;;55.60;7.40;100053.66;5073810;28;20092;-78
2021/07/11 09:55:32;;;;;;;5.83;5.23;;;;;;;55.48;7.61;100047.75;5091427;28;20048;-78
2021/07/11 09:58:00;;;;;;;6.03;5.63;;;;;;;55.62;7.87;100036.63;5091756;28;20032;-80
2021/07/11 10:00:30;;;;;;;5.65;5.22;;;;;;;55.71;7.68;100039.50;5090184;28;20138;-79
2021/07/11 10:03:05;;;;;;;6.53;5.53;;;;;;;54.99;7.57;100028.63;5090257;28;20448;-78
2021/07/11 10:05:32;;;;;;;5.20;4.75;;;;;;;55.04;7.96;100028.53;5091061;28;20044;-78
2021/07/11 10:07:59;;;;;;;5.90;5.30;;;;;;;54.49;8.15;100032.75;5090022;28;20141;-79
2021/07/11 10:10:28;;;;;;;5.53;5.13;;;;;;;54.79;8.17;100029.78;5092611;28;20062;-77
2021/07/11 10:12:55;;;;;;;5.57;5.05;;;;;;;54.99;7.62;100025.00;5094318;28;20092;-77
2021/07/11 10:15:25;;;;;;;5.20;4.80;;;;;;;54.82;7.70;100018.03;5093256;28;20052;-78
2021/07/11 10:18:05;;;;;;;5.25;4.88;;;;;;;54.71;7.59;100025.75;5094015;28;20051;-80
2021/07/11 10:20:33;;;;;;;5.88;5.20;;;;;;;54.43;8.10;100020.06;5077132;28;20063;-78
2021/07/11 10:23:00;;;;;;;5.55;5.00;;;;;;;54.26;8.29;100030.88;5093896;28;20043;-79
2021/07/11 10:25:28;;;;;;;5.47;5.03;;;;;;;54.04;8.15;100018.41;5077032;28;20044;-78
2021/07/11 10:28:12;;;;;;;5.63;5.13;;;;;;;53.59;8.17;100018.72;5093960;28;20168;-77
2021/07/11 10:30:48;;;;;;;5.55;5.15;;;;;;;53.69;8.00;100018.59;5076266;28;20043;-77
2021/07/11 10:33:20;;;;;;;5.13;4.50;;;;;;;52.32;9.08;100018.47;5101141;28;20040;-80
2021/07/11 10:35:59;;;;;;;4.65;4.28;;;;;;;50.11;9.84;100012.16;5093889;28;20487;-79
2021/07/11 10:38:36;;;;;;;7.57;5.03;;;;;;;48.30;11.08;100022.78;5093720;28;20036;-77
2021/07/11 10:41:18;;;;;;;6.25;4.80;;;;;;;46.60;11.96;100013.69;5094691;28;20096;-77
2021/07/11 10:44:04;;;;;;;6.25;4.90;;;;;;;44.79;13.48;100015.22;5093402;28;20035;-76
2021/07/11 10:46:44;;;;;;;4.60;4.28;;;;;;;43.78;14.38;100015.69;5087148;28;20101;-78
2021/07/11 10:49:15;;;;;;;4.97;4.50;;;;;;;43.02;15.18;100011.13;5094454;28;20036;-77
2021/07/11 10:51:45;;;;;;;5.00;4.50;;;;;;;42.33;15.46;99989.03;5093421;28;20071;-77
2021/07/11 10:54:31;;;;;;;5.15;4.75;;;;;;;41.95;15.98;100001.63;5083030;28;20078;-76
2021/07/11 10:57:00;;;;;;;7.90;4.90;;;;;;;41.47;16.06;100000.00;5098224;28;20108;-77
2021/07/11 10:59:37;;;;;;;5.28;4.80;;;;;;;41.03;16.50;100015.97;5098206;28;20040;-77
2021/07/11 11:02:16;;;;;;;5.97;4.97;;;;;;;40.53;16.92;100005.38;5097302;28;20494;-77
2021/07/11 11:04:47;;;;;;;5.47;4.97;;;;;;;40.18;17.33;100009.03;5098191;28;20123;-79
2021/07/11 11:07:17;;;;;;;5.43;4.85;;;;;;;39.83;17.94;100005.50;5072758;28;20070;-78
2021/07/11 11:09:47;;;;;;;5.03;4.28;;;;;;;39.55;18.23;100009.94;5110999;28;20060;-75
2021/07/11 11:12:25;;;;;;;5.20;4.80;;;;;;;39.18;18.53;100011.91;5113888;28;20054;-77
2021/07/11 11:15:01;;;;;;;5.43;5.03;;;;;;;38.87;18.81;100007.69;5068429;28;20112;-75
2021/07/11 11:17:30;;;;;;;6.63;5.15;;;;;;;38.71;19.15;100006.88;5096232;28;20067;-75
2021/07/11 11:19:57;;;;;;;5.57;5.07;;;;;;;38.44;19.83;100000.31;5094362;28;20097;-77
2021/07/11 11:22:24;;;;;;;5.60;4.85;;;;;;;38.22;19.93;99993.97;5096147;28;20542;-78
2021/07/11 11:24:50;;;;;;;6.68;4.60;;;;;;;38.15;19.89;100018.34;5079073;28;20036;-75
2021/07/11 11:27:29;;;;;;;5.28;4.88;;;;;;;37.97;20.68;100014.13;5088420;28;20116;-74
2021/07/11 11:30:14;;;;;;;6.10;4.88;;;;;;;37.53;20.80;100007.66;5106639;28;20042;-77